METAR Data
IDs: Format: Raw Decoded Include TAF

Data at: 1631 UTC 03 Jul 2020

Region: TOP
KATL 031552Z 09005KT 9SM FEW034 FEW095 SCT120 SCT250 29/21 A3001 RMK AO2 SLP150 TCU DSNT W-NW ACC NE-SE T02940206

KBOS 031554Z 03015G19KT 10SM OVC017 21/16 A2991 RMK AO2 SLP127 T02110161 $

KBWI 031554Z 33006KT 10SM FEW250 34/19 A2988 RMK AO2 SLP117 T03390189

KCLE 031551Z 30009KT 10SM BKN250 31/16 A3003 RMK AO2 SLP163 T03060161 $

KCLT 031552Z VRB04KT 10SM FEW060 FEW250 31/17 A3001 RMK AO2 SLP152 T03110172

KCVG 031552Z 00000KT 9SM SCT040 SCT150 BKN250 31/17 A3005 RMK AO2 SLP162 T03110172

KDCA 031552Z VRB06KT 10SM FEW120 33/18 A2990 RMK AO2 SLP126 T03330183

KDEN 031553Z VRB04KT 10SM FEW080 FEW140 25/11 A3021 RMK AO2 SLP140 T02500111

KDFW 031553Z 23007KT 9SM FEW180 31/23 A2999 RMK AO2 SLP144 T03110228

KDTW 031553Z 33006KT 10SM FEW050 FEW250 32/19 A3002 RMK AO2 SLP160 T03170194

KEWR 031551Z 01005KT 10SM FEW070 BKN140 32/18 A2984 RMK AO2 SLP105 T03170183

KFLL 031553Z 00000KT 10SM FEW030 FEW250 32/23 A2999 RMK AO2 SLP154 T03220233

KIAD 031552Z VRB04KT 10SM CLR 32/19 A2992 RMK AO2 SLP129 T03170189

KIAH 031553Z 27009KT 10SM SCT030 BKN250 31/22 A3002 RMK AO2 SLP164 T03110222

KJFK 031551Z VRB03KT 10SM FEW060 BKN160 32/19 A2985 RMK AO2 SLP108 T03170194

KLAS 031556Z 19007KT 10SM CLR 32/01 A3000 RMK AO2 SLP129 T03170011 $

KLAX 031553Z 26005KT 9SM FEW011 19/14 A3001 RMK AO2 SLP161 T01940144

KLGA 031551Z 35007KT 10SM FEW065 BKN150 31/17 A2984 RMK AO2 SLP105 T03060167

KMCO 031553Z 25006KT 10SM SCT031CB SCT060 BKN300 31/23 A2996 RMK AO2 SLP144 CB N DSNT W MOV E T03110233

KMDW 031553Z VRB03KT 10SM FEW250 31/13 A3007 RMK AO2 SLP170 T03060128

KMEM 031554Z 00000KT 10SM BKN036 BKN050 30/22 A2998 RMK AO2 SLP148 T03000222

KMIA 031553Z 00000KT 10SM BKN040 BKN250 33/22 A2999 RMK AO2 SLP157 CB DSNT W MOV E T03330217 $

KMSP 031553Z 08004KT 10SM SCT250 29/18 A3010 RMK AO2 SLP185 T02940178

KORD 031551Z 00000KT 10SM FEW055 FEW250 31/15 A3006 RMK AO2 SLP173 T03060150 $

KPDX 031553Z 00000KT 10SM SCT027 OVC049 16/11 A3009 RMK AO2 SLP189 T01610111

KPHL 031554Z VRB05KT 10SM FEW120 SCT260 32/18 A2986 RMK AO2 SLP110 T03220178 $

KPHX 031551Z 16003KT 10SM FEW100 FEW130 SCT150 33/17 A2997 RMK AO2 SLP127 T03280167 $

KPIT 031551Z 32010KT 10SM FEW060 SCT250 29/14 A3002 RMK AO2 SLP162 T02940144

KSAN 031611Z 27006KT 10SM SCT013 21/15 A3003 RMK AO2 T02060150

KSEA 031553Z 21006KT 10SM FEW015 BKN043 OVC050 14/10 A3007 RMK AO2 SLP189 T01440100

KSFO 031556Z 00000KT 9SM FEW005 FEW013 16/10 A3003 RMK AO2 SLP167 T01610100

KSLC 031554Z 15016KT 10SM FEW150 29/03 A3009 RMK AO2 SLP127 T02890033

KSTL 031551Z 13008KT 10SM SCT032 SCT100 BKN250 31/23 A3002 RMK AO2 SLP150 T03060228

KTPA 031553Z 26011KT 10SM BKN030TCU BKN300 31/23 A2997 RMK AO2 SLP149 TCU ALQDS T03060228